Terminal Aerodrome Forecast
Issued by NWS

Home | Current Version | Previous Version | Text Only | Print | Product List | Glossary Off
Versions: 1 2 3 4 5 6 7 8 9 10 11 12 13 14 15 16 17 18 19 20 21 22 23 24 25 26 27 28 29

000
FTUS43 KABR 242300
TAFPIR
TAF
KPIR 242340Z 2500/2524 30018G25KT P6SM VCSH FEW090 OVC110
     FM250100 32011KT P6SM FEW250
     FM250700 31015G23KT P6SM SKC
     FM251300 32022G30KT P6SM BKN030=

USA.gov is the U.S. government's official web portal to all federal, state and local government web resources and services.